Time;durP1;ratioP1;P1;durP2;ratioP2;P2;SDS_P1;SDS_P2;PMS_P1;PMS_P2;Temp;Humidity;BMP_temperature;BMP_pressure;BME280_temperature;BME280_humidity;BME280_pressure;Samples;Min_cycle;Max_cycle;Signal;HPM_P1;HPM_P2
2022/02/12 00:02:19;;;;;;;13.05;2.15;;;0.10;99.90;;;;;;5096383;27;20525;-63
2022/02/12 00:05:04;;;;;;;16.27;2.70;;;0.00;99.90;;;;;;5093603;28;20042;-64
2022/02/12 00:07:49;;;;;;;12.88;2.60;;;0.00;99.90;;;;;;5092586;28;20459;-62
2022/02/12 00:10:33;;;;;;;17.38;3.15;;;0.00;99.90;;;;;;5093384;28;20589;-64
2022/02/12 00:13:18;;;;;;;22.23;2.97;;;0.00;99.90;;;;;;5093018;28;20043;-63
2022/02/12 00:16:02;;;;;;;17.60;2.50;;;0.00;99.90;;;;;;5086010;28;20165;-63
2022/02/12 00:18:46;;;;;;;16.90;2.38;;;0.00;99.90;;;;;;5085461;28;20039;-63
2022/02/12 00:21:30;;;;;;;12.00;2.35;;;0.00;99.90;;;;;;5087760;28;20089;-62
2022/02/12 00:24:14;;;;;;;9.50;2.17;;;-0.10;99.90;;;;;;5085270;28;20054;-62
2022/02/12 00:26:58;;;;;;;10.18;2.35;;;-0.10;99.90;;;;;;5084644;28;20488;-62
2022/02/12 00:29:42;;;;;;;13.35;2.65;;;-0.10;99.90;;;;;;5084164;28;20042;-62
2022/02/12 00:32:26;;;;;;;24.38;2.88;;;-0.10;99.90;;;;;;5080168;28;20059;-63
2022/02/12 00:35:11;;;;;;;7.85;2.53;;;-0.20;99.90;;;;;;5074416;28;20092;-63
2022/02/12 00:37:55;;;;;;;6.93;2.15;;;-0.10;99.90;;;;;;5073675;28;20648;-63
2022/02/12 00:40:39;;;;;;;15.23;3.20;;;-0.20;99.90;;;;;;5076625;28;20038;-62
2022/02/12 00:43:23;;;;;;;12.00;2.95;;;-0.30;99.90;;;;;;5086601;28;20098;-63
2022/02/12 00:46:07;;;;;;;8.95;2.38;;;-0.30;99.90;;;;;;5088256;28;20047;-63
2022/02/12 00:48:51;;;;;;;10.13;2.20;;;-0.30;99.90;;;;;;5070547;28;20131;-65
2022/02/12 00:51:36;;;;;;;10.80;2.72;;;-0.30;99.90;;;;;;5086291;28;20039;-63
2022/02/12 00:54:20;;;;;;;13.63;2.40;;;-0.30;99.90;;;;;;5081412;28;20035;-63
2022/02/12 00:57:05;;;;;;;12.10;2.17;;;-0.40;99.90;;;;;;5078977;28;20109;-63
2022/02/12 00:59:50;;;;;;;18.83;3.10;;;-0.40;99.90;;;;;;5086209;28;20085;-61
2022/02/12 01:02:34;;;;;;;8.30;2.03;;;-0.40;99.90;;;;;;5078881;28;20063;-64
2022/02/12 01:05:18;;;;;;;19.98;3.70;;;-0.40;99.90;;;;;;5086971;28;20131;-63
2022/02/12 01:08:03;;;;;;;17.90;2.45;;;-0.40;99.90;;;;;;5082511;28;20080;-62
2022/02/12 01:10:47;;;;;;;12.23;2.35;;;-0.40;99.90;;;;;;5078276;28;20563;-62
2022/02/12 01:13:32;;;;;;;15.02;3.00;;;-0.50;99.90;;;;;;5075189;28;20094;-62
2022/02/12 01:16:16;;;;;;;8.27;2.05;;;-0.50;99.90;;;;;;5081240;28;20055;-62
2022/02/12 01:19:00;;;;;;;10.00;1.60;;;-0.60;99.90;;;;;;5085619;28;20034;-63
2022/02/12 01:21:45;;;;;;;11.35;2.92;;;-0.70;99.90;;;;;;5085131;28;20088;-63
2022/02/12 01:24:29;;;;;;;11.50;2.78;;;-0.80;99.90;;;;;;5083036;28;20035;-63
2022/02/12 01:27:13;;;;;;;15.27;1.92;;;-0.80;99.90;;;;;;5073871;28;20084;-63
2022/02/12 01:29:57;;;;;;;15.82;1.90;;;-0.90;99.90;;;;;;5086034;28;20059;-63
2022/02/12 01:32:42;;;;;;;13.13;2.00;;;-1.00;99.90;;;;;;5079704;28;20799;-62
2022/02/12 01:35:26;;;;;;;13.70;2.30;;;-1.00;99.90;;;;;;5084792;28;20047;-63
2022/02/12 01:38:10;;;;;;;8.77;2.15;;;-1.10;99.90;;;;;;5073928;28;20115;-62
2022/02/12 01:40:58;;;;;;;12.02;2.38;;;-1.10;99.90;;;;;;5065449;22;20506;-61
2022/02/12 01:43:42;;;;;;;12.05;2.08;;;-1.20;99.90;;;;;;5070274;28;20084;-62
2022/02/12 01:46:26;;;;;;;15.52;2.33;;;-1.30;99.90;;;;;;5066963;28;20051;-62
2022/02/12 01:49:11;;;;;;;8.10;1.83;;;-1.20;99.90;;;;;;5063973;28;20035;-62
2022/02/12 01:51:56;;;;;;;13.48;3.00;;;-1.30;99.90;;;;;;5065486;28;20040;-62
2022/02/12 01:54:41;;;;;;;16.20;2.20;;;-1.40;99.90;;;;;;5062569;28;20039;-63
2022/02/12 01:57:25;;;;;;;16.58;2.78;;;-1.40;99.90;;;;;;5066594;28;20067;-62
2022/02/12 02:00:13;;;;;;;11.02;2.00;;;-1.40;99.90;;;;;;5058908;28;20718;-63
2022/02/12 02:02:57;;;;;;;17.40;2.30;;;-1.50;99.90;;;;;;5064690;28;20047;-63
2022/02/12 02:05:41;;;;;;;10.98;2.13;;;-1.50;99.90;;;;;;5065315;28;20039;-64
2022/02/12 02:08:27;;;;;;;8.73;2.85;;;-1.60;99.90;;;;;;5065584;28;20039;-63
2022/02/12 02:11:15;;;;;;;16.10;2.95;;;-1.60;99.90;;;;;;5065195;28;20031;-64
2022/02/12 02:13:59;;;;;;;10.38;2.00;;;-1.60;99.90;;;;;;5065750;28;20035;-63
2022/02/12 02:16:44;;;;;;;12.18;2.33;;;-1.60;99.90;;;;;;5065508;28;20039;-61
2022/02/12 02:19:32;;;;;;;27.15;2.40;;;-1.70;99.90;;;;;;5055185;28;20097;-61
2022/02/12 02:22:19;;;;;;;18.00;2.83;;;-1.70;99.90;;;;;;5059363;28;20086;-61
2022/02/12 02:25:03;;;;;;;;;;;-1.80;99.90;;;;;;5065531;28;20039;-64
2022/02/12 02:27:48;;;;;;;14.88;2.03;;;-1.80;99.90;;;;;;5065276;28;19965;-61
2022/02/12 02:30:32;;;;;;;8.48;1.77;;;-1.90;99.90;;;;;;5065427;28;20684;-62
2022/02/12 02:33:16;;;;;;;12.25;2.30;;;-1.90;99.90;;;;;;5060352;28;20027;-63
2022/02/12 02:36:00;;;;;;;7.60;2.25;;;-2.00;99.90;;;;;;5066064;28;20051;-63
2022/02/12 02:38:44;;;;;;;10.35;1.73;;;-2.00;99.90;;;;;;5064231;28;20478;-63
2022/02/12 02:41:28;;;;;;;12.25;1.85;;;-2.10;99.90;;;;;;5064798;28;20404;-61
2022/02/12 02:44:12;;;;;;;12.43;2.60;;;-2.10;99.90;;;;;;5061832;28;20047;-62
2022/02/12 02:46:56;;;;;;;8.95;2.13;;;-2.10;99.90;;;;;;5069124;28;20057;-62
2022/02/12 02:49:41;;;;;;;14.32;2.60;;;-2.10;99.90;;;;;;5066084;28;20041;-62
2022/02/12 02:58:38;;;;;;;14.80;2.40;;;-2.10;99.90;;;;;;5073746;28;20028;-64
2022/02/12 03:01:24;;;;;;;15.40;2.10;;;-2.10;99.90;;;;;;5058285;28;20075;-61
2022/02/12 03:04:08;;;;;;;11.73;2.05;;;-2.20;99.90;;;;;;5058370;28;20396;-63
2022/02/12 03:06:52;;;;;;;19.38;2.30;;;-2.20;99.90;;;;;;5065932;28;20040;-63
2022/02/12 03:09:36;;;;;;;10.93;2.33;;;-2.20;99.90;;;;;;5061752;28;20039;-62
2022/02/12 03:12:20;;;;;;;11.35;1.92;;;-2.20;99.90;;;;;;5064565;28;20487;-62
2022/02/12 03:15:05;;;;;;;8.52;2.05;;;-2.30;99.90;;;;;;5064262;28;20040;-63
2022/02/12 03:17:49;;;;;;;13.18;2.83;;;-2.30;99.90;;;;;;5050749;28;20167;-63
2022/02/12 03:20:33;;;;;;;9.60;1.83;;;-2.30;99.90;;;;;;5065872;28;20741;-62
2022/02/12 03:23:17;;;;;;;14.10;2.38;;;-2.30;99.90;;;;;;5061216;28;20484;-62
2022/02/12 03:26:02;;;;;;;9.75;1.85;;;-2.30;99.90;;;;;;5065793;28;20032;-61
2022/02/12 03:28:46;;;;;;;11.95;2.17;;;-2.40;99.90;;;;;;5063632;28;20058;-61
2022/02/12 03:31:30;;;;;;;9.77;1.88;;;-2.40;99.90;;;;;;5063974;28;20036;-60
2022/02/12 03:34:15;;;;;;;21.45;2.30;;;-2.40;99.90;;;;;;5062638;28;20035;-61
2022/02/12 03:36:59;;;;;;;12.10;2.13;;;-2.40;99.90;;;;;;5063708;28;20059;-62
2022/02/12 03:39:43;;;;;;;14.80;2.05;;;-2.40;99.90;;;;;;5062002;28;20069;-61
2022/02/12 03:42:28;;;;;;;11.77;2.20;;;-2.50;99.90;;;;;;5066556;28;20040;-62
2022/02/12 03:45:12;;;;;;;8.68;2.17;;;-2.40;99.90;;;;;;5056931;28;20086;-63
2022/02/12 03:47:56;;;;;;;10.35;1.83;;;-2.40;99.90;;;;;;5063765;28;20181;-64
2022/02/12 03:50:41;;;;;;;11.95;1.80;;;-2.50;99.90;;;;;;5063757;28;20061;-62
2022/02/12 03:53:25;;;;;;;11.65;2.78;;;-2.60;99.90;;;;;;5065836;28;20043;-62
2022/02/12 03:56:09;;;;;;;16.00;2.10;;;-2.60;99.90;;;;;;5048714;28;20048;-63
2022/02/12 03:58:53;;;;;;;11.73;2.03;;;-2.60;99.90;;;;;;5066850;28;20085;-62
2022/02/12 04:01:38;;;;;;;11.68;2.17;;;-2.60;99.90;;;;;;5065718;28;20067;-63
2022/02/12 04:04:22;;;;;;;11.00;2.40;;;-2.60;99.90;;;;;;5067016;28;20043;-62
2022/02/12 04:07:06;;;;;;;13.32;2.60;;;-2.60;99.90;;;;;;5059590;28;20404;-63
2022/02/12 04:09:50;;;;;;;15.43;2.50;;;-2.60;99.90;;;;;;5057537;28;20035;-61
2022/02/12 04:12:35;;;;;;;9.05;1.65;;;-2.70;99.90;;;;;;5066158;28;20563;-63
2022/02/12 04:15:20;;;;;;;5.63;1.60;;;-2.80;99.90;;;;;;5068187;28;20038;-65
2022/02/12 04:18:09;;;;;;;12.68;2.03;;;-2.80;99.90;;;;;;5047877;28;20503;-63
2022/02/12 04:20:53;;;;;;;6.30;1.95;;;-2.80;99.90;;;;;;5067056;28;20036;-63
2022/02/12 04:23:37;;;;;;;11.55;4.32;;;-2.80;99.90;;;;;;5066951;28;20082;-62
2022/02/12 04:26:21;;;;;;;8.25;1.85;;;-2.80;99.90;;;;;;5053210;28;20048;-62
2022/02/12 04:29:05;;;;;;;10.50;2.35;;;-2.80;99.90;;;;;;5053323;28;20496;-62
2022/02/12 04:31:49;;;;;;;6.80;1.90;;;-2.90;99.90;;;;;;5065328;28;20040;-61
2022/02/12 04:34:34;;;;;;;8.32;2.20;;;-2.80;99.90;;;;;;5064620;28;20040;-62
2022/02/12 04:37:19;;;;;;;13.25;1.73;;;-2.80;99.90;;;;;;5066719;28;20093;-64
2022/02/12 04:40:04;;;;;;;16.65;2.22;;;-2.80;99.90;;;;;;5057620;28;20040;-62
2022/02/12 04:42:48;;;;;;;15.70;3.08;;;-2.90;99.90;;;;;;5072748;28;20089;-62
2022/02/12 04:45:32;;;;;;;12.45;2.05;;;-2.90;99.90;;;;;;5071217;28;20040;-61
2022/02/12 04:48:16;;;;;;;4.80;1.52;;;-2.90;99.90;;;;;;5051566;28;20110;-62
2022/02/12 04:51:00;;;;;;;10.48;1.92;;;-3.00;99.90;;;;;;5067568;28;20082;-62
2022/02/12 04:53:46;;;;;;;16.20;1.95;;;-3.00;99.90;;;;;;5053508;28;20055;-62
2022/02/12 04:56:30;;;;;;;20.80;2.70;;;-3.00;99.90;;;;;;5065204;28;20039;-62
2022/02/12 04:59:14;;;;;;;10.63;2.65;;;-3.10;99.90;;;;;;5065960;28;20048;-62
2022/02/12 05:01:58;;;;;;;13.73;2.50;;;-3.10;99.90;;;;;;5065696;28;20855;-62
2022/02/12 05:04:42;;;;;;;10.65;2.08;;;-3.20;99.90;;;;;;5064517;28;20051;-63
2022/02/12 05:07:26;;;;;;;15.80;2.28;;;-3.30;99.90;;;;;;5071106;28;20044;-64
2022/02/12 05:10:10;;;;;;;7.90;1.40;;;-3.20;99.90;;;;;;5066276;28;20035;-64
2022/02/12 05:12:54;;;;;;;8.38;2.00;;;-3.20;99.90;;;;;;5065162;28;20124;-62
2022/02/12 05:15:39;;;;;;;12.00;2.75;;;-3.20;99.90;;;;;;5063165;28;20047;-63
2022/02/12 05:18:23;;;;;;;14.02;2.20;;;-3.20;99.90;;;;;;5066437;28;20086;-62
2022/02/12 05:21:07;;;;;;;11.45;1.73;;;-3.20;99.90;;;;;;5058857;28;20063;-64
2022/02/12 05:23:51;;;;;;;15.55;2.15;;;-3.30;99.90;;;;;;5063832;28;20039;-65
2022/02/12 05:26:36;;;;;;;7.10;1.40;;;-3.40;99.90;;;;;;5053430;28;20120;-65
2022/02/12 05:29:20;;;;;;;6.20;2.00;;;-3.40;99.90;;;;;;5065073;28;20078;-63
2022/02/12 05:32:05;;;;;;;7.00;1.77;;;-3.40;99.90;;;;;;5051043;28;20675;-63
2022/02/12 05:34:49;;;;;;;6.93;1.60;;;-3.40;99.90;;;;;;5066579;28;20166;-65
2022/02/12 05:37:33;;;;;;;6.47;1.98;;;-3.40;99.90;;;;;;5064944;28;20047;-65
2022/02/12 05:40:18;;;;;;;14.23;1.75;;;-3.40;99.90;;;;;;5065295;28;20066;-63
2022/02/12 05:43:02;;;;;;;12.63;1.80;;;-3.40;99.90;;;;;;5061681;28;20039;-63
2022/02/12 05:45:46;;;;;;;8.90;1.95;;;-3.50;99.90;;;;;;5065202;28;20139;-62
2022/02/12 05:48:31;;;;;;;8.02;1.80;;;-3.50;99.90;;;;;;5065487;28;20338;-62
2022/02/12 05:51:20;;;;;;;11.52;2.28;;;-3.50;99.90;;;;;;5058700;28;20161;-65
2022/02/12 05:54:05;;;;;;;7.25;2.03;;;-3.50;99.90;;;;;;5063642;28;20077;-63
2022/02/12 05:56:49;;;;;;;10.20;2.25;;;-3.60;99.90;;;;;;5066079;28;20071;-61
2022/02/12 05:59:33;;;;;;;12.35;2.08;;;-3.50;99.90;;;;;;5061587;28;20071;-62
2022/02/12 06:02:17;;;;;;;13.00;1.92;;;-3.60;99.90;;;;;;5062395;28;20043;-62
2022/02/12 06:05:02;;;;;;;7.32;2.10;;;-3.70;99.90;;;;;;5057004;28;20039;-62
2022/02/12 06:07:47;;;;;;;17.50;2.40;;;-3.70;99.90;;;;;;5065721;28;20047;-63
2022/02/12 06:10:32;;;;;;;13.25;2.63;;;-3.70;99.90;;;;;;5065498;28;20038;-63
2022/02/12 06:13:17;;;;;;;8.15;2.03;;;-3.70;99.90;;;;;;5059650;28;20108;-62
2022/02/12 06:16:01;;;;;;;7.40;1.90;;;-3.60;99.90;;;;;;5048252;28;20090;-65
2022/02/12 06:18:47;;;;;;;12.77;2.20;;;-3.70;99.90;;;;;;5065487;28;20167;-62
2022/02/12 06:21:31;;;;;;;11.27;2.63;;;-3.70;99.90;;;;;;5066076;28;20047;-63
2022/02/12 06:24:16;;;;;;;10.88;2.13;;;-3.70;99.90;;;;;;5063188;28;20070;-64
2022/02/12 06:27:04;;;;;;;14.13;2.45;;;-3.90;99.90;;;;;;5064608;28;20046;-62
2022/02/12 06:29:48;;;;;;;13.25;2.40;;;-4.00;99.90;;;;;;5065954;28;20035;-62
2022/02/12 06:32:32;;;;;;;10.55;2.40;;;-3.90;99.90;;;;;;5064760;28;20554;-63
2022/02/12 06:35:16;;;;;;;20.30;2.13;;;-3.80;99.90;;;;;;5059221;28;20412;-62
2022/02/12 06:38:01;;;;;;;19.10;2.30;;;-3.80;99.90;;;;;;5053790;28;20526;-63
2022/02/12 06:40:45;;;;;;;11.55;2.08;;;-3.80;99.90;;;;;;5063632;28;20075;-63
2022/02/12 06:43:29;;;;;;;7.13;1.75;;;-3.80;99.90;;;;;;5068650;28;20044;-64
2022/02/12 06:46:14;;;;;;;9.07;2.20;;;-3.80;99.90;;;;;;5058229;28;20166;-63
2022/02/12 06:48:58;;;;;;;13.10;2.40;;;-3.90;99.90;;;;;;5065549;28;20040;-63
2022/02/12 06:51:42;;;;;;;10.68;3.35;;;-3.80;99.90;;;;;;5064385;28;20038;-62
2022/02/12 06:54:26;;;;;;;15.35;2.20;;;-3.80;99.90;;;;;;5065040;28;20115;-63
2022/02/12 06:57:11;;;;;;;14.20;1.92;;;-3.80;99.90;;;;;;5058136;28;20094;-64
2022/02/12 06:59:55;;;;;;;12.02;1.85;;;-3.80;99.90;;;;;;5062564;28;20571;-64
2022/02/12 07:02:39;;;;;;;10.98;2.60;;;-3.80;99.90;;;;;;5061546;28;20043;-62
2022/02/12 07:05:23;;;;;;;8.50;2.10;;;-3.80;99.90;;;;;;5064434;28;20169;-62
2022/02/12 07:08:07;;;;;;;9.00;2.55;;;-3.80;99.90;;;;;;5062379;28;20090;-62
2022/02/12 07:10:51;;;;;;;10.45;2.17;;;-3.70;99.90;;;;;;5064233;28;20110;-63
2022/02/12 07:13:35;;;;;;;8.27;2.72;;;-3.80;99.90;;;;;;5067450;28;20038;-62
2022/02/12 07:16:19;;;;;;;11.25;2.30;;;-3.70;99.90;;;;;;5059231;28;20043;-63
2022/02/12 07:19:03;;;;;;;12.27;2.50;;;-3.70;99.90;;;;;;5065284;28;20058;-63
2022/02/12 07:21:47;;;;;;;8.27;1.65;;;-3.70;99.90;;;;;;5063303;28;20039;-63
2022/02/12 07:24:32;;;;;;;17.13;2.67;;;-3.60;99.90;;;;;;5060995;28;20043;-64
2022/02/12 07:27:16;;;;;;;13.90;3.03;;;-3.70;99.90;;;;;;5058763;28;20137;-63
2022/02/12 07:30:00;;;;;;;10.75;3.30;;;-3.60;99.90;;;;;;5060334;28;20035;-63
2022/02/12 07:32:45;;;;;;;21.15;3.42;;;-3.60;99.90;;;;;;5068011;28;20333;-62
2022/02/12 07:35:29;;;;;;;17.02;2.63;;;-3.50;99.90;;;;;;5067459;28;20036;-63
2022/02/12 07:38:13;;;;;;;19.45;5.40;;;-3.50;99.90;;;;;;5056185;28;20511;-63
2022/02/12 07:40:58;;;;;;;8.75;3.00;;;-3.60;99.90;;;;;;5068201;28;20144;-63
2022/02/12 07:43:43;;;;;;;14.02;2.55;;;-3.40;99.90;;;;;;5073389;28;20078;-63
2022/02/12 07:46:28;;;;;;;16.35;3.47;;;-3.40;99.90;;;;;;5066709;28;20035;-65
2022/02/12 07:49:12;;;;;;;17.73;7.75;;;-3.30;99.90;;;;;;5065184;28;20515;-64
2022/02/12 07:51:57;;;;;;;15.30;6.28;;;-3.00;99.90;;;;;;5065425;28;20070;-64
2022/02/12 07:54:41;;;;;;;15.98;4.60;;;-3.00;99.90;;;;;;5064575;28;20710;-63
2022/02/12 07:57:26;;;;;;;15.98;5.38;;;-2.80;99.90;;;;;;5067791;28;20074;-62
2022/02/12 08:00:11;;;;;;;19.67;4.15;;;-2.80;99.90;;;;;;5061046;28;20044;-63
2022/02/12 08:02:57;;;;;;;18.02;5.13;;;-2.70;99.90;;;;;;5066924;28;20097;-63
2022/02/12 08:05:41;;;;;;;20.87;5.00;;;-2.70;99.90;;;;;;5067572;28;20067;-63
2022/02/12 08:08:25;;;;;;;14.93;4.97;;;-2.60;99.90;;;;;;5067202;28;20366;-64
2022/02/12 08:11:30;;;;;;;11.45;5.15;;;-2.40;99.90;;;;;;5059985;28;20090;-64
2022/02/12 08:14:15;;;;;;;11.43;4.05;;;-2.00;99.90;;;;;;5065788;28;20028;-62
2022/02/12 08:16:59;;;;;;;18.95;4.00;;;-1.80;99.90;;;;;;5066416;28;20043;-64
2022/02/12 08:19:45;;;;;;;18.45;3.90;;;-1.70;99.90;;;;;;5065382;28;20128;-61
2022/02/12 08:22:29;;;;;;;10.05;2.53;;;-1.60;99.90;;;;;;5066810;28;20526;-63
2022/02/12 08:25:13;;;;;;;12.18;3.33;;;-1.30;99.90;;;;;;5066907;28;20047;-65
2022/02/12 08:27:58;;;;;;;13.60;3.28;;;-1.10;99.90;;;;;;5066811;28;20067;-63
2022/02/12 08:30:42;;;;;;;8.63;3.33;;;-1.00;99.90;;;;;;5062844;28;20044;-63
2022/02/12 08:33:27;;;;;;;13.82;4.22;;;-0.80;99.90;;;;;;5063565;28;20082;-63
2022/02/12 08:36:11;;;;;;;20.58;2.90;;;-0.60;99.90;;;;;;5062431;28;20058;-62
2022/02/12 08:38:58;;;;;;;19.17;2.78;;;-0.60;99.90;;;;;;5064244;28;20130;-62
2022/02/12 08:41:43;;;;;;;12.43;2.92;;;-0.50;99.90;;;;;;5066258;28;20507;-61
2022/02/12 08:44:27;;;;;;;14.85;3.10;;;-0.40;99.90;;;;;;5065728;28;20043;-62
2022/02/12 08:47:11;;;;;;;15.10;2.67;;;-0.20;99.90;;;;;;5059347;28;20459;-62
2022/02/12 08:49:56;;;;;;;9.10;2.38;;;-0.10;99.90;;;;;;5067062;28;20090;-64
2022/02/12 08:52:40;;;;;;;17.63;2.80;;;0.00;99.90;;;;;;5051445;28;20454;-62
2022/02/12 08:55:24;;;;;;;15.55;2.45;;;0.20;99.90;;;;;;5060843;28;20031;-62
2022/02/12 08:58:09;;;;;;;20.27;2.20;;;0.30;99.90;;;;;;5068681;28;20039;-62
2022/02/12 09:00:53;;;;;;;12.32;2.00;;;0.40;99.90;;;;;;5066936;28;20153;-61
2022/02/12 09:03:37;;;;;;;14.25;2.15;;;0.50;99.90;;;;;;5066526;28;20115;-62
2022/02/12 09:06:21;;;;;;;9.00;2.00;;;0.80;99.90;;;;;;5065397;28;20048;-62
2022/02/12 09:09:09;;;;;;;9.48;2.03;;;0.80;99.90;;;;;;5065648;28;20030;-62
2022/02/12 09:11:54;;;;;;;9.45;2.03;;;0.90;99.90;;;;;;5065348;28;20046;-62
2022/02/12 09:14:38;;;;;;;9.73;2.28;;;1.00;99.90;;;;;;5066972;28;20101;-63
2022/02/12 09:17:23;;;;;;;10.20;1.80;;;1.10;99.90;;;;;;5067005;28;20503;-62
2022/02/12 09:20:07;;;;;;;17.40;2.78;;;1.20;99.90;;;;;;5072336;28;20446;-62
2022/02/12 09:22:52;;;;;;;12.40;1.92;;;1.40;99.90;;;;;;5065690;28;20062;-62
2022/02/12 09:25:36;;;;;;;15.95;1.92;;;1.40;99.90;;;;;;5066176;28;20750;-62
2022/02/12 09:28:20;;;;;;;16.67;2.22;;;1.50;99.90;;;;;;5066909;28;20039;-61
2022/02/12 09:31:04;;;;;;;8.77;2.00;;;1.60;99.90;;;;;;5058120;28;20129;-62
2022/02/12 09:33:48;;;;;;;17.63;2.30;;;1.60;99.90;;;;;;5066010;28;20101;-64
2022/02/12 09:36:32;;;;;;;13.75;2.33;;;1.60;99.90;;;;;;5068554;28;20039;-63
2022/02/12 09:39:17;;;;;;;14.57;2.50;;;1.70;99.90;;;;;;5066062;28;20508;-64
2022/02/12 09:42:00;;;;;;;14.50;2.65;;;1.70;99.90;;;;;;5065348;28;20690;-62
2022/02/12 09:44:45;;;;;;;17.00;3.65;;;1.90;99.90;;;;;;5064247;28;20746;-64
2022/02/12 09:47:49;;;;;;;14.25;2.10;;;1.90;99.90;;;;;;5065535;28;20039;-63
2022/02/12 09:50:36;;;;;;;17.88;2.45;;;2.00;99.90;;;;;;5065736;28;20047;-61
2022/02/12 09:53:20;;;;;;;14.55;2.88;;;2.10;99.90;;;;;;5065570;28;20060;-61
2022/02/12 09:56:04;;;;;;;7.03;2.17;;;2.10;99.90;;;;;;5057753;28;20039;-63
2022/02/12 09:58:49;;;;;;;11.35;2.45;;;2.10;99.90;;;;;;5065557;28;20085;-63
2022/02/12 10:01:38;;;;;;;12.15;2.45;;;2.10;99.90;;;;;;5052962;28;20083;-62
2022/02/12 10:04:25;;;;;;;12.27;1.90;;;2.20;99.90;;;;;;5064762;28;20128;-63
2022/02/12 10:07:23;;;;;;;12.82;2.45;;;2.30;99.90;;;;;;5065638;28;20089;-62
2022/02/12 10:10:15;;;;;;;9.85;2.38;;;2.40;99.90;;;;;;5057865;28;20077;-64
2022/02/12 10:13:20;;;;;;;10.80;2.22;;;2.50;99.90;;;;;;5064717;28;20554;-63
2022/02/12 10:16:04;;;;;;;10.90;1.85;;;2.60;99.90;;;;;;5057623;28;20086;-63
2022/02/12 10:18:56;;;;;;;17.50;3.05;;;2.70;99.90;;;;;;5065458;28;20043;-62
2022/02/12 10:21:40;;;;;;;11.93;2.33;;;2.80;99.90;;;;;;5054511;28;20520;-63
2022/02/12 10:24:46;;;;;;;14.75;2.95;;;2.90;99.90;;;;;;5064798;28;20034;-62
2022/02/12 10:27:31;;;;;;;11.77;2.30;;;3.00;99.90;;;;;;5060332;28;20031;-64
2022/02/12 10:30:15;;;;;;;7.80;1.85;;;3.00;99.90;;;;;;5058751;28;20107;-63
2022/02/12 10:33:02;;;;;;;13.02;2.50;;;3.00;99.90;;;;;;5065185;28;20069;-62
2022/02/12 10:36:01;;;;;;;10.65;2.05;;;3.00;99.90;;;;;;5065521;28;20074;-62
2022/02/12 10:38:48;;;;;;;11.90;2.75;;;3.10;99.90;;;;;;5064826;28;20043;-64
2022/02/12 10:41:33;;;;;;;14.65;2.88;;;3.10;99.90;;;;;;5065001;28;20203;-64
2022/02/12 10:44:17;;;;;;;12.82;2.70;;;3.10;99.90;;;;;;5065269;28;20063;-63
2022/02/12 10:47:02;;;;;;;9.32;2.50;;;3.10;99.90;;;;;;5062246;28;20458;-62
2022/02/12 10:49:47;;;;;;;11.90;2.50;;;3.10;99.90;;;;;;5063963;28;20048;-62
2022/02/12 10:52:42;;;;;;;9.98;2.63;;;3.20;99.90;;;;;;5063544;28;20043;-63
2022/02/12 10:55:38;;;;;;;10.93;2.33;;;3.30;99.90;;;;;;5062506;28;20040;-63
2022/02/12 10:58:24;;;;;;;7.18;2.33;;;3.30;99.90;;;;;;5064141;28;20032;-63
2022/02/12 11:01:08;;;;;;;10.32;2.17;;;3.30;99.90;;;;;;5063955;28;20668;-61
2022/02/12 11:03:52;;;;;;;12.68;2.38;;;3.40;99.90;;;;;;5064338;28;20408;-62
2022/02/12 11:06:38;;;;;;;16.05;2.25;;;3.30;99.90;;;;;;5064584;28;20050;-63
2022/02/12 11:09:23;;;;;;;8.98;2.08;;;3.40;99.90;;;;;;5064375;28;20120;-62
2022/02/12 11:12:08;;;;;;;13.35;2.60;;;3.50;99.90;;;;;;5058846;28;20035;-62
2022/02/12 11:14:53;;;;;;;9.75;2.75;;;3.40;99.90;;;;;;5066747;28;20056;-61
2022/02/12 11:17:40;;;;;;;7.63;1.88;;;3.30;99.90;;;;;;5064743;28;20494;-61
2022/02/12 11:20:25;;;;;;;9.73;2.58;;;3.30;99.90;;;;;;5059268;28;20039;-58
2022/02/12 11:23:27;;;;;;;11.30;2.42;;;3.30;99.90;;;;;;5065637;28;20040;-62
2022/02/12 11:26:20;;;;;;;7.13;2.28;;;3.40;99.90;;;;;;5063862;28;20147;-66
2022/02/12 11:29:33;;;;;;;14.15;3.45;;;3.50;99.90;;;;;;5068559;28;20112;-62
2022/02/12 11:32:24;;;;;;;14.07;3.00;;;3.40;99.90;;;;;;5057248;28;20039;-64
2022/02/12 11:35:09;;;;;;;12.80;2.80;;;3.50;99.90;;;;;;5062872;28;20077;-62
2022/02/12 11:37:53;;;;;;;15.18;2.70;;;3.50;99.90;;;;;;5063118;28;20519;-61
2022/02/12 11:40:38;;;;;;;10.60;2.55;;;3.70;99.90;;;;;;5063716;28;20063;-62
2022/02/12 11:43:35;;;;;;;6.05;2.42;;;3.60;99.90;;;;;;5062822;28;21036;-62
2022/02/12 11:47:00;;;;;;;6.93;2.38;;;3.70;99.90;;;;;;5064297;28;20424;-63
2022/02/12 11:49:45;;;;;;;8.18;2.10;;;3.70;99.90;;;;;;5061903;28;20059;-62
2022/02/12 11:52:29;;;;;;;8.13;2.13;;;3.60;99.90;;;;;;5062843;28;20043;-62
2022/02/12 11:55:32;;;;;;;9.13;2.40;;;3.60;99.90;;;;;;5065042;28;20068;-62
2022/02/12 11:58:47;;;;;;;14.57;2.50;;;3.50;99.90;;;;;;5060922;28;20040;-61
2022/02/12 12:01:35;;;;;;;12.27;2.25;;;3.30;99.90;;;;;;5054253;28;20446;-60
2022/02/12 12:04:25;;;;;;;15.13;2.28;;;3.20;99.90;;;;;;5064041;28;20434;-60
2022/02/12 12:07:11;;;;;;;13.95;2.70;;;3.30;99.90;;;;;;5062782;28;20070;-62
2022/02/12 12:10:05;;;;;;;12.05;2.60;;;3.30;99.90;;;;;;5063756;28;20041;-63
2022/02/12 12:12:49;;;;;;;22.13;4.20;;;3.30;99.90;;;;;;5062725;28;20171;-64
2022/02/12 12:15:34;;;;;;;5.53;1.98;;;3.30;99.90;;;;;;5065827;28;20106;-61
2022/02/12 12:18:18;;;;;;;9.45;2.15;;;3.40;99.90;;;;;;5068123;28;20027;-62
2022/02/12 12:21:12;;;;;;;11.60;1.95;;;3.40;99.90;;;;;;5068109;28;20054;-62
2022/02/12 12:23:59;;;;;;;9.23;2.53;;;3.40;99.90;;;;;;5068529;28;20117;-62
2022/02/12 12:26:46;;;;;;;10.20;2.45;;;3.30;99.90;;;;;;5066553;28;20171;-61
2022/02/12 12:32:34;;;;;;;10.18;2.03;;;3.10;99.90;;;;;;5063951;28;20074;-60
2022/02/12 12:35:19;;;;;;;9.77;1.83;;;3.30;99.90;;;;;;5061836;28;20035;-62
2022/02/12 12:38:06;;;;;;;9.15;2.22;;;3.30;99.90;;;;;;5067568;28;20043;-62
2022/02/12 12:40:51;;;;;;;9.38;2.10;;;3.50;99.90;;;;;;5067080;28;20123;-62
2022/02/12 12:43:35;;;;;;;10.40;2.15;;;3.40;99.90;;;;;;5068589;28;20063;-59
2022/02/12 12:46:20;;;;;;;12.55;3.17;;;3.40;99.90;;;;;;5063823;28;20044;-62
2022/02/12 12:49:05;;;;;;;9.25;2.30;;;3.30;99.90;;;;;;5066807;28;20036;-59
2022/02/12 12:51:50;;;;;;;8.38;1.95;;;3.30;99.90;;;;;;5066703;28;20027;-59
2022/02/12 12:54:40;;;;;;;8.90;1.98;;;3.30;99.90;;;;;;5063604;28;20515;-63
2022/02/12 12:57:29;;;;;;;5.72;1.95;;;3.30;99.90;;;;;;5061537;28;20420;-62
2022/02/12 13:00:18;;;;;;;7.72;2.00;;;3.20;99.90;;;;;;5059472;28;20086;-61
2022/02/12 13:03:02;;;;;;;7.40;2.33;;;3.30;99.90;;;;;;5070515;28;20039;-61
2022/02/12 13:05:46;;;;;;;7.40;2.00;;;3.40;99.90;;;;;;5070854;28;20392;-61
2022/02/12 13:08:30;;;;;;;6.95;2.50;;;3.50;99.90;;;;;;5067638;28;20047;-61
2022/02/12 13:11:29;;;;;;;8.45;2.58;;;3.50;99.90;;;;;;5063571;28;20039;-62
2022/02/12 13:14:13;;;;;;;8.05;2.60;;;3.50;99.90;;;;;;5067997;28;20036;-61
2022/02/12 13:16:57;;;;;;;9.00;2.70;;;3.50;99.90;;;;;;5068935;28;20112;-61
2022/02/12 13:19:41;;;;;;;9.63;2.83;;;3.60;99.90;;;;;;5066995;28;20106;-61
2022/02/12 13:22:28;;;;;;;9.73;3.03;;;3.50;99.90;;;;;;5066637;28;20043;-62
2022/02/12 13:25:15;;;;;;;10.48;2.80;;;3.50;99.90;;;;;;5072820;28;20439;-62
2022/02/12 13:28:00;;;;;;;10.05;2.47;;;3.40;99.90;;;;;;5069625;28;20157;-62
2022/02/12 13:30:48;;;;;;;9.35;2.53;;;3.30;99.90;;;;;;5066453;28;20090;-60
2022/02/12 13:33:33;;;;;;;8.52;2.55;;;3.20;99.90;;;;;;5066070;28;20062;-62
2022/02/12 13:36:18;;;;;;;8.60;2.92;;;3.20;99.90;;;;;;5061369;28;20782;-61
2022/02/12 13:39:05;;;;;;;7.88;2.33;;;3.20;99.90;;;;;;5067441;28;20047;-61
2022/02/12 13:41:56;;;;;;;10.25;2.50;;;3.20;99.90;;;;;;5065631;28;20075;-62
2022/02/12 13:44:40;;;;;;;9.52;2.08;;;3.30;99.90;;;;;;5049281;28;20593;-62
2022/02/12 13:47:25;;;;;;;9.38;2.55;;;3.30;99.90;;;;;;5065434;28;20062;-62
2022/02/12 13:50:23;;;;;;;7.22;1.90;;;3.30;99.90;;;;;;5058640;28;20047;-61
2022/02/12 13:53:15;;;;;;;9.38;2.47;;;3.30;99.90;;;;;;5064495;28;20024;-64
2022/02/12 13:56:00;;;;;;;12.38;2.28;;;3.20;99.90;;;;;;5065588;28;20075;-63
2022/02/12 13:58:45;;;;;;;7.68;2.20;;;3.10;99.90;;;;;;5068572;28;20035;-62
2022/02/12 14:01:29;;;;;;;9.77;3.13;;;3.10;99.90;;;;;;5065727;28;20090;-61
2022/02/12 14:04:13;;;;;;;10.90;2.97;;;3.00;99.90;;;;;;5067843;28;20027;-62
2022/02/12 14:06:57;;;;;;;12.15;2.60;;;3.00;99.90;;;;;;5050561;28;20460;-62
2022/02/12 14:09:41;;;;;;;9.70;2.10;;;3.10;99.90;;;;;;5065361;28;20039;-62
2022/02/12 14:12:26;;;;;;;16.15;3.03;;;3.10;99.90;;;;;;5052048;28;20039;-62
2022/02/12 14:15:10;;;;;;;8.82;3.17;;;3.10;99.90;;;;;;5063355;28;20035;-61
2022/02/12 14:17:54;;;;;;;8.52;2.10;;;3.10;99.90;;;;;;5064788;28;20143;-61
2022/02/12 14:20:38;;;;;;;11.43;2.42;;;3.10;99.90;;;;;;5066119;28;20114;-62
2022/02/12 14:23:23;;;;;;;6.07;2.17;;;3.10;99.90;;;;;;5067153;28;20046;-62
2022/02/12 14:26:07;;;;;;;7.28;2.22;;;3.10;99.90;;;;;;5060373;28;20097;-61
2022/02/12 14:28:52;;;;;;;8.10;2.45;;;3.00;99.90;;;;;;5065980;28;20793;-62
2022/02/12 14:31:36;;;;;;;7.55;2.55;;;2.90;99.90;;;;;;5063623;28;20039;-62